Time,TemperatureF,DewpointF,PressureIn,WindDirection,WindDirectionDegrees,WindSpeedMPH,WindSpeedGustMPH,Humidity,HourlyPrecipIn,Conditions,Clouds,dailyrainin,SoftwareType,DateUTC
2013-04-12 00:02:00,67.0,18.0,29.72,WNW,286,1.0,4.0,15,0.00,,,0.00,,2013-04-12 06:02:00,
2013-04-12 00:12:00,67.0,18.0,29.72,WNW,286,1.0,4.0,15,0.00,,,0.00,,2013-04-12 06:12:00,
2013-04-12 00:22:00,66.0,17.0,29.72,NW,326,1.0,4.0,15,0.00,,,0.00,,2013-04-12 06:22:00,
2013-04-12 00:32:00,66.0,19.0,29.72,WNW,301,1.0,3.0,16,0.00,,,0.00,,2013-04-12 06:32:00,
2013-04-12 00:42:00,66.0,19.0,29.72,WNW,301,1.0,3.0,16,0.00,,,0.00,,2013-04-12 06:42:00,
2013-04-12 00:52:00,65.0,19.0,29.72,WNW,284,0.0,1.0,17,0.00,,,0.00,,2013-04-12 06:52:00,
2013-04-12 01:01:00,64.0,21.0,29.72,NNW,338,0.0,0.0,19,0.00,,,0.00,,2013-04-12 07:01:00,
2013-04-12 01:11:00,64.0,21.0,29.72,NNW,338,0.0,0.0,19,0.00,,,0.00,,2013-04-12 07:11:00,
2013-04-12 01:22:00,63.0,21.0,29.72,NNE,27,0.0,1.0,20,0.00,,,0.00,,2013-04-12 07:22:00,
2013-04-12 01:32:00,62.0,22.0,29.72,NNE,32,0.0,1.0,21,0.00,,,0.00,,2013-04-12 07:32:00,
2013-04-12 01:42:00,62.0,22.0,29.72,NNE,32,0.0,1.0,21,0.00,,,0.00,,2013-04-12 07:42:00,
2013-04-12 01:52:00,61.0,22.0,29.71,NNE,32,0.0,0.0,22,0.00,,,0.00,,2013-04-12 07:52:00,
2013-04-12 02:03:00,59.0,22.0,29.72,NNE,32,0.0,0.0,24,0.00,,,0.00,,2013-04-12 08:03:00,
2013-04-12 02:12:00,59.0,22.0,29.72,NNE,32,0.0,0.0,24,0.00,,,0.00,,2013-04-12 08:12:00,
2013-04-12 02:22:00,58.0,31.0,29.72,NNE,31,0.0,0.0,35,0.00,,,0.00,,2013-04-12 08:22:00,
2013-04-12 02:32:00,57.0,23.0,29.72,NNW,347,0.0,1.0,27,0.00,,,0.00,,2013-04-12 08:32:00,
2013-04-12 02:42:00,57.0,23.0,29.72,NNW,347,0.0,1.0,27,0.00,,,0.00,,2013-04-12 08:42:00,
2013-04-12 02:52:00,58.0,23.0,29.72,NNW,347,0.0,1.0,26,0.00,,,0.00,,2013-04-12 08:52:00,
2013-04-12 03:02:00,58.0,22.0,29.72,North,358,0.0,2.0,25,0.00,,,0.00,,2013-04-12 09:02:00,
2013-04-12 03:12:00,58.0,22.0,29.72,North,358,0.0,2.0,25,0.00,,,0.00,,2013-04-12 09:12:00,
2013-04-12 03:22:00,58.0,23.0,29.72,North,8,0.0,0.0,26,0.00,,,0.00,,2013-04-12 09:22:00,
2013-04-12 03:33:00,58.0,24.0,29.71,NNE,13,0.0,1.0,27,0.00,,,0.00,,2013-04-12 09:33:00,
2013-04-12 03:43:00,58.0,24.0,29.71,NNE,13,0.0,1.0,27,0.00,,,0.00,,2013-04-12 09:43:00,
2013-04-12 03:52:00,57.0,25.0,29.72,SE,131,0.0,2.0,29,0.00,,,0.00,,2013-04-12 09:52:00,
2013-04-12 04:03:00,57.0,25.0,29.72,SE,131,0.0,2.0,29,0.00,,,0.00,,2013-04-12 10:03:00,
2013-04-12 04:12:00,57.0,25.0,29.72,SE,131,0.0,2.0,29,0.00,,,0.00,,2013-04-12 10:12:00,
2013-04-12 04:23:00,58.0,26.0,29.72,NNE,31,0.0,4.0,29,0.00,,,0.00,,2013-04-12 10:23:00,
2013-04-12 04:34:00,57.0,25.0,29.72,East,92,0.0,1.0,29,0.00,,,0.00,,2013-04-12 10:34:00,
2013-04-12 04:42:00,57.0,25.0,29.72,East,92,0.0,1.0,29,0.00,,,0.00,,2013-04-12 10:42:00,
2013-04-12 04:52:00,55.0,25.0,29.72,East,92,0.0,0.0,31,0.00,,,0.00,,2013-04-12 10:52:00,
2013-04-12 05:02:00,55.0,26.0,29.72,East,91,0.0,0.0,33,0.00,,,0.00,,2013-04-12 11:02:00,
2013-04-12 05:13:00,55.0,26.0,29.72,East,91,0.0,0.0,33,0.00,,,0.00,,2013-04-12 11:13:00,
2013-04-12 05:22:00,55.0,28.0,29.73,NNW,339,0.0,1.0,35,0.00,,,0.00,,2013-04-12 11:22:00,
2013-04-12 05:32:00,53.0,29.0,29.73,NE,41,0.0,-999.0,40,-99.99,,,-99.99,,2013-04-12 11:32:00,
2013-04-12 05:42:00,53.0,29.0,29.73,NE,41,0.0,-999.0,40,-99.99,,,-99.99,,2013-04-12 11:42:00,
2013-04-12 05:52:00,52.0,26.0,29.74,NE,41,0.0,0.0,36,0.00,,,0.00,,2013-04-12 11:52:00,
2013-04-12 06:02:00,51.0,29.0,29.74,NE,41,0.0,1.0,42,0.00,,,0.00,,2013-04-12 12:02:00,
2013-04-12 06:13:00,51.0,29.0,29.74,NE,41,0.0,1.0,42,0.00,,,0.00,,2013-04-12 12:13:00,
2013-04-12 06:22:00,50.0,28.0,29.74,NE,34,0.0,0.0,42,0.00,,,0.00,,2013-04-12 12:22:00,
2013-04-12 06:33:00,49.0,31.0,29.74,NE,34,0.0,1.0,50,0.00,,,0.00,,2013-04-12 12:33:00,
2013-04-12 06:42:00,49.0,31.0,29.74,NE,34,0.0,1.0,50,0.00,,,0.00,,2013-04-12 12:42:00,
2013-04-12 06:52:00,48.0,25.0,29.75,NNE,17,0.0,0.0,41,0.00,,,0.00,,2013-04-12 12:52:00,
2013-04-12 07:03:00,47.0,27.0,29.75,NNE,18,0.0,0.0,45,0.00,,,0.00,,2013-04-12 13:03:00,
2013-04-12 07:12:00,47.0,27.0,29.75,NNE,18,0.0,0.0,45,0.00,,,0.00,,2013-04-12 13:12:00,
2013-04-12 07:22:00,47.0,25.0,29.75,NNE,17,0.0,0.0,42,0.00,,,0.00,,2013-04-12 13:22:00,
2013-04-12 07:32:00,47.0,26.0,29.76,NNE,17,0.0,0.0,43,0.00,,,0.00,,2013-04-12 13:32:00,
2013-04-12 07:42:00,47.0,26.0,29.76,NNE,17,0.0,0.0,43,0.00,,,0.00,,2013-04-12 13:42:00,
2013-04-12 07:52:00,47.0,27.0,29.77,NNE,17,0.0,0.0,46,0.00,,,0.00,,2013-04-12 13:52:00,
2013-04-12 08:03:00,49.0,25.0,29.77,NNE,18,0.0,0.0,38,0.00,,,0.00,,2013-04-12 14:03:00,
2013-04-12 08:12:00,49.0,25.0,29.77,NNE,18,0.0,0.0,38,0.00,,,0.00,,2013-04-12 14:12:00,
2013-04-12 08:22:00,50.0,25.0,29.78,NNE,18,0.0,0.0,37,0.00,,,0.00,,2013-04-12 14:22:00,
2013-04-12 08:33:00,52.0,25.0,29.77,NNE,18,0.0,1.0,35,0.00,,,0.00,,2013-04-12 14:33:00,
2013-04-12 08:42:00,52.0,25.0,29.77,NNE,18,0.0,1.0,35,0.00,,,0.00,,2013-04-12 14:42:00,
2013-04-12 08:52:00,54.0,26.0,29.78,NNE,17,0.0,1.0,33,0.00,,,0.00,,2013-04-12 14:52:00,
2013-04-12 09:02:00,55.0,23.0,29.78,North,1,0.0,3.0,28,0.00,,,0.00,,2013-04-12 15:02:00,
2013-04-12 09:12:00,55.0,23.0,29.78,North,1,0.0,3.0,28,0.00,,,0.00,,2013-04-12 15:12:00,
2013-04-12 09:22:00,57.0,22.0,29.78,NW,316,0.0,2.0,26,0.00,,,0.00,,2013-04-12 15:22:00,
2013-04-12 09:33:00,59.0,22.0,29.78,West,278,0.0,2.0,24,0.00,,,0.00,,2013-04-12 15:33:00,
2013-04-12 09:43:00,59.0,22.0,29.78,West,278,0.0,2.0,24,0.00,,,0.00,,2013-04-12 15:43:00,
2013-04-12 09:53:00,59.0,22.0,29.78,West,278,0.0,2.0,24,0.00,,,0.00,,2013-04-12 15:53:00,
2013-04-12 10:03:00,63.0,24.0,29.77,WNW,297,0.0,1.0,22,0.00,,,0.00,,2013-04-12 16:03:00,
2013-04-12 10:13:00,63.0,24.0,29.77,WNW,297,0.0,1.0,22,0.00,,,0.00,,2013-04-12 16:13:00,
2013-04-12 10:23:00,65.0,23.0,29.77,SW,218,1.0,4.0,20,0.00,,,0.00,,2013-04-12 16:23:00,
2013-04-12 10:33:00,66.0,29.0,29.76,SW,221,0.0,3.0,25,0.00,,,0.00,,2013-04-12 16:33:00,
2013-04-12 10:42:00,66.0,29.0,29.76,SW,221,0.0,3.0,25,0.00,,,0.00,,2013-04-12 16:42:00,
2013-04-12 10:52:00,66.0,27.0,29.76,SW,228,1.0,6.0,23,0.00,,,0.00,,2013-04-12 16:52:00,
2013-04-12 11:03:00,67.0,28.0,29.76,South,174,0.0,4.0,23,0.00,,,0.00,,2013-04-12 17:03:00,
2013-04-12 11:12:00,67.0,28.0,29.76,South,174,0.0,4.0,23,0.00,,,0.00,,2013-04-12 17:12:00,
2013-04-12 11:23:00,67.0,27.0,29.75,SE,142,0.0,3.0,22,0.00,,,0.00,,2013-04-12 17:23:00,
2013-04-12 11:33:00,67.0,30.0,29.75,SW,218,0.0,4.0,25,0.00,,,0.00,,2013-04-12 17:33:00,
2013-04-12 11:44:00,67.0,30.0,29.75,SW,218,0.0,4.0,25,0.00,,,0.00,,2013-04-12 17:44:00,
2013-04-12 12:10:00,69.0,25.0,29.74,SSW,203,0.0,3.0,19,0.00,,,0.00,,2013-04-12 18:10:00,
2013-04-12 13:26:00,72.0,29.0,29.72,SW,236,2.0,4.0,20,0.00,,,0.00,,2013-04-12 19:26:00,
2013-04-12 13:32:00,73.0,28.0,29.71,SW,222,3.0,5.0,19,0.00,,,0.00,,2013-04-12 19:32:00,
2013-04-12 13:43:00,73.0,28.0,29.71,SW,222,3.0,5.0,19,0.00,,,0.00,,2013-04-12 19:43:00,
2013-04-12 13:52:00,72.0,25.0,29.70,SW,218,1.0,4.0,17,0.00,,,0.00,,2013-04-12 19:52:00,
2013-04-12 14:02:00,72.0,23.0,29.70,SSW,211,1.0,4.0,16,0.00,,,0.00,,2013-04-12 20:02:00,
2013-04-12 14:12:00,72.0,23.0,29.70,SSW,211,1.0,4.0,16,0.00,,,0.00,,2013-04-12 20:12:00,
2013-04-12 14:22:00,73.0,26.0,29.69,East,91,0.0,3.0,17,0.00,,,0.00,,2013-04-12 20:22:00,
2013-04-12 14:32:00,74.0,22.0,29.68,WNW,298,0.0,4.0,14,0.00,,,0.00,,2013-04-12 20:32:00,
2013-04-12 14:42:00,74.0,22.0,29.68,WNW,298,0.0,4.0,14,0.00,,,0.00,,2013-04-12 20:42:00,
2013-04-12 14:52:00,74.0,33.0,29.67,WSW,255,1.0,4.0,22,0.00,,,0.00,,2013-04-12 20:52:00,
2013-04-12 15:02:00,74.0,23.0,29.67,ESE,107,0.0,5.0,15,0.00,,,0.00,,2013-04-12 21:02:00,
2013-04-12 15:12:00,74.0,23.0,29.67,ESE,107,0.0,5.0,15,0.00,,,0.00,,2013-04-12 21:12:00,
2013-04-12 15:22:00,74.0,23.0,29.67,SE,145,0.0,3.0,15,0.00,,,0.00,,2013-04-12 21:22:00,
2013-04-12 15:33:00,75.0,23.0,29.66,SE,144,1.0,3.0,14,0.00,,,0.00,,2013-04-12 21:33:00,
2013-04-12 15:43:00,75.0,23.0,29.66,SE,144,1.0,3.0,14,0.00,,,0.00,,2013-04-12 21:43:00,
2013-04-12 15:52:00,77.0,22.0,29.65,ESE,110,1.0,3.0,13,0.00,,,0.00,,2013-04-12 21:52:00,
2013-04-12 16:02:00,76.0,23.0,29.65,NNE,17,1.0,3.0,14,0.00,,,0.00,,2013-04-12 22:02:00,
2013-04-12 16:13:00,76.0,23.0,29.65,NNE,17,1.0,3.0,14,0.00,,,0.00,,2013-04-12 22:13:00,
2013-04-12 16:22:00,76.0,23.0,29.64,East,89,0.0,6.0,14,0.00,,,0.00,,2013-04-12 22:22:00,
2013-04-12 16:32:00,75.0,21.0,29.64,NW,326,1.0,4.0,13,0.00,,,0.00,,2013-04-12 22:32:00,
2013-04-12 16:42:00,75.0,21.0,29.64,NW,326,1.0,4.0,13,0.00,,,0.00,,2013-04-12 22:42:00,
2013-04-12 16:52:00,75.0,23.0,29.63,ESE,107,0.0,5.0,14,0.00,,,0.00,,2013-04-12 22:52:00,
2013-04-12 17:03:00,76.0,23.0,29.63,NE,44,0.0,3.0,14,0.00,,,0.00,,2013-04-12 23:03:00,
2013-04-12 17:12:00,76.0,23.0,29.63,NE,44,0.0,3.0,14,0.00,,,0.00,,2013-04-12 23:12:00,
2013-04-12 17:22:00,76.0,23.0,29.62,NE,43,2.0,5.0,14,0.00,,,0.00,,2013-04-12 23:22:00,
2013-04-12 17:32:00,76.0,20.0,29.62,SE,129,1.0,5.0,12,0.00,,,0.00,,2013-04-12 23:32:00,
2013-04-12 17:42:00,76.0,20.0,29.62,SE,129,1.0,5.0,12,0.00,,,0.00,,2013-04-12 23:42:00,
2013-04-12 17:52:00,76.0,23.0,29.62,ESE,110,0.0,3.0,14,0.00,,,0.00,,2013-04-12 23:52:00,
2013-04-12 18:02:00,75.0,21.0,29.62,NW,311,0.0,3.0,13,0.00,,,0.00,,2013-04-13 00:02:00,
2013-04-12 18:12:00,75.0,21.0,29.62,NW,311,0.0,3.0,13,0.00,,,0.00,,2013-04-13 00:12:00,
2013-04-12 18:22:00,74.0,23.0,29.62,NE,46,0.0,3.0,15,0.00,,,0.00,,2013-04-13 00:22:00,
2013-04-12 18:32:00,74.0,25.0,29.62,NNE,21,0.0,1.0,16,0.00,,,0.00,,2013-04-13 00:32:00,
2013-04-12 18:42:00,74.0,25.0,29.62,NNE,21,0.0,1.0,16,0.00,,,0.00,,2013-04-13 00:42:00,
2013-04-12 18:52:00,73.0,24.0,29.62,North,6,0.0,2.0,16,0.00,,,0.00,,2013-04-13 00:52:00,
2013-04-12 19:02:00,73.0,23.0,29.62,NNE,21,0.0,1.0,15,0.00,,,0.00,,2013-04-13 01:02:00,
2013-04-12 19:12:00,73.0,23.0,29.62,NNE,21,0.0,1.0,15,0.00,,,0.00,,2013-04-13 01:12:00,
2013-04-12 19:22:00,74.0,22.0,29.62,NNW,338,0.0,1.0,14,0.00,,,0.00,,2013-04-13 01:22:00,
2013-04-12 19:32:00,73.0,27.0,29.62,NNW,339,0.0,0.0,18,0.00,,,0.00,,2013-04-13 01:32:00,
2013-04-12 19:42:00,73.0,27.0,29.62,NNW,339,0.0,0.0,18,0.00,,,0.00,,2013-04-13 01:42:00,
2013-04-12 19:52:00,70.0,29.0,29.63,NNW,339,0.0,0.0,22,0.00,,,0.00,,2013-04-13 01:52:00,
2013-04-12 20:02:00,68.0,35.0,29.63,NNW,339,0.0,0.0,29,0.00,,,0.00,,2013-04-13 02:02:00,
2013-04-12 20:12:00,68.0,35.0,29.63,NNW,339,0.0,0.0,29,0.00,,,0.00,,2013-04-13 02:12:00,
2013-04-12 20:22:00,66.0,35.0,29.63,NNW,338,0.0,0.0,32,0.00,,,0.00,,2013-04-13 02:22:00,
2013-04-12 20:32:00,64.0,33.0,29.63,NNW,338,0.0,0.0,31,0.00,,,0.00,,2013-04-13 02:32:00,
2013-04-12 20:42:00,64.0,33.0,29.63,NNW,338,0.0,0.0,31,0.00,,,0.00,,2013-04-13 02:42:00,
2013-04-12 20:52:00,63.0,29.0,29.64,NNW,338,0.0,0.0,28,0.00,,,0.00,,2013-04-13 02:52:00,
2013-04-12 21:02:00,61.0,34.0,29.64,NNW,337,0.0,0.0,36,0.00,,,0.00,,2013-04-13 03:02:00,
2013-04-12 21:12:00,61.0,34.0,29.64,NNW,337,0.0,0.0,36,0.00,,,0.00,,2013-04-13 03:12:00,
2013-04-12 21:23:00,61.0,29.0,29.65,NNW,337,0.0,0.0,30,0.00,,,0.00,,2013-04-13 03:23:00,
2013-04-12 21:33:00,61.0,29.0,29.65,NNW,338,0.0,1.0,29,0.00,,,0.00,,2013-04-13 03:33:00,
2013-04-12 21:42:00,61.0,29.0,29.65,NNW,338,0.0,1.0,29,0.00,,,0.00,,2013-04-13 03:42:00,
2013-04-12 21:53:00,61.0,29.0,29.65,NNW,337,0.0,0.0,30,0.00,,,0.00,,2013-04-13 03:53:00,
2013-04-12 22:03:00,61.0,25.0,29.66,NNW,329,0.0,2.0,25,0.00,,,0.00,,2013-04-13 04:03:00,
2013-04-12 22:12:00,61.0,25.0,29.66,NNW,329,0.0,2.0,25,0.00,,,0.00,,2013-04-13 04:12:00,
2013-04-12 22:23:00,61.0,29.0,29.66,NNW,328,0.0,1.0,30,0.00,,,0.00,,2013-04-13 04:23:00,
2013-04-12 22:33:00,61.0,28.0,29.67,North,358,0.0,1.0,28,0.00,,,0.00,,2013-04-13 04:33:00,
2013-04-12 22:42:00,61.0,28.0,29.67,North,358,0.0,1.0,28,0.00,,,0.00,,2013-04-13 04:42:00,
2013-04-12 22:53:00,61.0,23.0,29.67,North,359,0.0,0.0,23,0.00,,,0.00,,2013-04-13 04:53:00,
2013-04-12 23:02:00,59.0,23.0,29.68,ESE,105,0.0,2.0,25,0.00,,,0.00,,2013-04-13 05:02:00,
2013-04-12 23:12:00,59.0,23.0,29.68,ESE,105,0.0,2.0,25,0.00,,,0.00,,2013-04-13 05:12:00,
2013-04-12 23:22:00,59.0,26.0,29.68,ESE,105,0.0,0.0,28,0.00,,,0.00,,2013-04-13 05:22:00,
2013-04-12 23:32:00,60.0,23.0,29.69,ESE,105,0.0,0.0,24,0.00,,,0.00,,2013-04-13 05:32:00,
2013-04-12 23:42:00,60.0,23.0,29.69,ESE,105,0.0,0.0,24,0.00,,,0.00,,2013-04-13 05:42:00,
2013-04-12 23:52:00,60.0,23.0,29.69,ESE,105,0.0,0.0,24,0.00,,,0.00,,2013-04-13 05:52:00,